Time;durP1;ratioP1;P1;durP2;ratioP2;P2;SDS_P1;SDS_P2;PMS_P1;PMS_P2;Temp;Humidity;BMP_temperature;BMP_pressure;BME280_temperature;BME280_humidity;BME280_pressure;Samples;Min_cycle;Max_cycle;Signal;HPM_P1;HPM_P2
2022/07/22 00:00:36;;;;;;;23.42;8.07;;;;;;;17.09;91.24;101677.25;5076042;28;20097;-62
2022/07/22 00:03:03;;;;;;;23.35;8.20;;;;;;;17.10;89.40;101670.88;5075982;28;20429;-61
2022/07/22 00:05:30;;;;;;;26.27;7.88;;;;;;;17.07;89.55;101668.53;5075399;28;20083;-60
2022/07/22 00:07:57;;;;;;;21.90;8.38;;;;;;;17.12;89.81;101668.88;5075551;28;20105;-61
2022/07/22 00:10:23;;;;;;;21.77;7.38;;;;;;;17.11;89.58;101667.19;5075962;28;20056;-61
2022/07/22 00:12:50;;;;;;;18.00;8.05;;;;;;;16.88;89.76;101665.28;5075688;28;20094;-60
2022/07/22 00:15:16;;;;;;;24.63;8.45;;;;;;;16.83;90.65;101670.31;5075779;28;20051;-61
2022/07/22 00:17:43;;;;;;;26.20;8.10;;;;;;;16.88;90.39;101672.47;5075811;28;20051;-62
2022/07/22 00:20:10;;;;;;;17.10;8.10;;;;;;;16.87;92.00;101670.81;5075649;28;20482;-61
2022/07/22 00:22:37;;;;;;;22.38;7.88;;;;;;;16.96;90.99;101674.28;5075728;28;20048;-60
2022/07/22 00:25:04;;;;;;;24.33;8.10;;;;;;;16.82;91.65;101673.94;5075672;28;20072;-60
2022/07/22 00:27:31;;;;;;;23.65;8.23;;;;;;;16.77;91.21;101675.47;5075477;28;20118;-62
2022/07/22 00:29:58;;;;;;;22.67;7.72;;;;;;;16.88;92.20;101670.63;5075264;28;20091;-61
2022/07/22 00:32:25;;;;;;;21.02;8.23;;;;;;;16.71;92.48;101674.31;5074902;28;20076;-60
2022/07/22 00:34:52;;;;;;;21.25;8.18;;;;;;;16.79;91.82;101668.09;5075222;28;20040;-60
2022/07/22 00:37:18;;;;;;;22.83;8.70;;;;;;;16.89;92.49;101672.28;5090893;28;20052;-60
2022/07/22 00:39:47;;;;;;;23.10;7.97;;;;;;;16.91;92.36;101671.28;5075268;28;20091;-60
2022/07/22 00:42:15;;;;;;;20.45;8.48;;;;;;;17.01;91.59;101669.25;5091027;28;20049;-61
2022/07/22 00:44:42;;;;;;;26.15;8.38;;;;;;;16.88;92.77;101669.78;5074641;28;20501;-61
2022/07/22 00:47:10;;;;;;;27.40;8.98;;;;;;;16.81;91.91;101668.78;5074963;28;20048;-60
2022/07/22 00:49:37;;;;;;;24.38;9.57;;;;;;;16.89;92.72;101666.94;5075068;28;20041;-61
2022/07/22 00:52:05;;;;;;;27.00;9.82;;;;;;;16.82;92.93;101667.78;5073746;28;20051;-62
2022/07/22 00:54:33;;;;;;;30.02;9.75;;;;;;;16.79;92.51;101665.44;5075255;28;20048;-61
2022/07/22 00:57:00;;;;;;;26.85;10.02;;;;;;;16.81;92.30;101666.13;5073654;28;20048;-61
2022/07/22 00:59:26;;;;;;;23.83;9.88;;;;;;;16.76;93.19;101665.78;5074775;28;20040;-60
2022/07/22 01:01:53;;;;;;;31.85;10.05;;;;;;;16.75;92.35;101664.94;5074200;28;20052;-60
2022/07/22 01:04:20;;;;;;;25.17;9.18;;;;;;;16.74;91.62;101657.91;5073724;28;20103;-61
2022/07/22 01:06:47;;;;;;;21.35;9.30;;;;;;;16.80;91.45;101657.22;5074381;28;20040;-61
2022/07/22 01:09:14;;;;;;;22.20;8.88;;;;;;;16.81;90.98;101652.72;5074547;28;20398;-61
2022/07/22 01:11:41;;;;;;;24.42;9.77;;;;;;;16.84;90.52;101657.75;5074692;28;20098;-60
2022/07/22 01:14:08;;;;;;;29.50;10.15;;;;;;;16.83;91.82;101651.56;5074719;28;20052;-61
2022/07/22 01:16:35;;;;;;;25.58;10.35;;;;;;;16.88;91.00;101657.22;5074569;28;20105;-61
2022/07/22 01:19:03;;;;;;;27.38;10.40;;;;;;;16.97;91.45;101663.41;5074595;28;20040;-62
2022/07/22 01:21:30;;;;;;;28.40;10.30;;;;;;;16.89;90.44;101656.22;5074008;28;20068;-61
2022/07/22 01:23:58;;;;;;;23.02;9.88;;;;;;;16.91;91.10;101661.41;5074659;28;20045;-61
2022/07/22 01:26:25;;;;;;;24.52;10.57;;;;;;;16.92;90.29;101659.53;5074150;28;20044;-61
2022/07/22 01:28:52;;;;;;;26.42;10.60;;;;;;;16.81;90.32;101655.41;5074091;28;20432;-61
2022/07/22 01:31:20;;;;;;;31.40;9.88;;;;;;;16.75;90.23;101662.25;5074172;28;20048;-61
2022/07/22 01:33:46;;;;;;;25.40;10.52;;;;;;;16.72;91.03;101651.91;5073719;28;20048;-61
2022/07/22 01:36:14;;;;;;;21.58;11.52;;;;;;;16.69;91.19;101645.03;5074297;28;20056;-62
2022/07/22 01:38:40;;;;;;;23.13;11.18;;;;;;;16.66;90.80;101652.56;5072755;28;20044;-61
2022/07/22 01:41:07;;;;;;;30.98;10.63;;;;;;;16.62;91.55;101649.41;5073986;28;20393;-63
2022/07/22 01:43:37;;;;;;;25.70;10.88;;;;;;;16.62;90.80;101649.41;5073938;28;20040;-61
2022/07/22 01:46:04;;;;;;;28.80;11.65;;;;;;;16.69;91.36;101650.38;5073708;28;20053;-61
2022/07/22 01:48:33;;;;;;;22.60;10.60;;;;;;;16.61;90.89;101650.44;5071708;28;20048;-61
2022/07/22 01:51:00;;;;;;;26.50;10.13;;;;;;;16.65;90.55;101648.25;5073986;28;20076;-62
2022/07/22 01:53:27;;;;;;;20.48;10.18;;;;;;;16.73;90.36;101647.38;5089016;28;20045;-62
2022/07/22 01:55:54;;;;;;;25.48;10.68;;;;;;;16.75;90.87;101645.34;5072520;28;20052;-62
2022/07/22 01:58:21;;;;;;;25.23;10.02;;;;;;;16.74;91.41;101641.84;5073532;28;20421;-63
2022/07/22 02:00:48;;;;;;;26.83;9.70;;;;;;;16.74;91.19;101643.69;5073720;28;20044;-62
2022/07/22 02:03:15;;;;;;;26.20;10.65;;;;;;;16.81;91.65;101640.16;5073595;28;20048;-61
2022/07/22 02:05:41;;;;;;;33.80;10.57;;;;;;;16.81;91.25;101642.81;5073107;28;20040;-60
2022/07/22 02:08:18;;;;;;;24.40;10.85;;;;;;;16.69;91.39;101642.34;5073487;28;20040;-61
2022/07/22 02:11:05;;;;;;;25.42;10.95;;;;;;;16.61;92.54;101639.72;5073457;28;20049;-61
2022/07/22 02:13:32;;;;;;;21.33;10.43;;;;;;;16.56;92.64;101642.06;5073601;28;20052;-60
2022/07/22 02:15:58;;;;;;;23.83;11.48;;;;;;;16.57;92.96;101646.44;5073147;28;20044;-62
2022/07/22 02:18:25;;;;;;;26.88;10.32;;;;;;;16.62;92.72;101644.03;5072166;28;20136;-61
2022/07/22 02:20:52;;;;;;;30.02;11.15;;;;;;;16.48;92.69;101634.91;5073455;28;20094;-61
2022/07/22 02:23:19;;;;;;;24.90;11.02;;;;;;;16.62;92.93;101637.84;5073155;28;20036;-61
2022/07/22 02:25:45;;;;;;;23.10;11.40;;;;;;;16.54;92.42;101641.41;5073472;28;20114;-61
2022/07/22 02:28:12;;;;;;;26.17;11.23;;;;;;;16.58;93.23;101631.19;5073126;28;20094;-62
2022/07/22 02:30:39;;;;;;;22.77;10.65;;;;;;;16.47;92.77;101627.03;5073206;28;20040;-61
2022/07/22 02:33:07;;;;;;;25.05;11.63;;;;;;;16.61;92.80;101641.56;5073120;28;20152;-62
2022/07/22 02:35:34;;;;;;;22.83;10.30;;;;;;;16.59;92.01;101635.50;5073049;28;20486;-61
2022/07/22 02:38:01;;;;;;;26.10;11.77;;;;;;;16.66;92.21;101628.47;5073317;28;20053;-62
2022/07/22 02:40:27;;;;;;;23.48;10.25;;;;;;;16.56;92.23;101636.72;5072907;28;20094;-62
2022/07/22 02:42:54;;;;;;;23.27;10.30;;;;;;;16.48;92.58;101632.22;5073284;28;20097;-62
2022/07/22 02:45:23;;;;;;;22.90;8.77;;;;;;;16.55;92.27;101635.03;5072645;28;20052;-62
2022/07/22 02:47:52;;;;;;;23.92;9.43;;;;;;;16.53;92.87;101637.03;5073220;28;20048;-61
2022/07/22 02:50:20;;;;;;;27.55;9.65;;;;;;;16.50;92.38;101637.41;5073033;28;20135;-61
2022/07/22 02:52:47;;;;;;;23.02;9.35;;;;;;;16.41;93.13;101633.91;5073184;28;20048;-61
2022/07/22 02:55:17;;;;;;;20.30;9.20;;;;;;;16.32;93.41;101637.59;5073091;28;20490;-61
2022/07/22 02:57:44;;;;;;;18.35;9.00;;;;;;;16.41;93.10;101643.75;5073219;28;20052;-61
2022/07/22 03:00:13;;;;;;;22.33;9.07;;;;;;;16.41;91.68;101641.09;5072984;28;20055;-61
2022/07/22 03:02:40;;;;;;;23.83;9.27;;;;;;;16.46;92.88;101644.94;5072890;28;20032;-63
2022/07/22 03:05:07;;;;;;;28.08;8.73;;;;;;;16.33;92.56;101639.25;5072592;28;20459;-61
2022/07/22 03:07:41;;;;;;;21.58;8.30;;;;;;;16.30;92.71;101639.63;5072903;28;20040;-61
2022/07/22 03:10:10;;;;;;;18.35;8.40;;;;;;;16.24;92.42;101646.47;5073000;28;20048;-60
2022/07/22 03:12:37;;;;;;;21.75;8.05;;;;;;;16.29;93.14;101644.13;5072655;28;20556;-61
2022/07/22 03:15:05;;;;;;;25.88;8.52;;;;;;;16.30;93.07;101644.97;5073048;28;20044;-60
2022/07/22 03:17:36;;;;;;;17.88;8.30;;;;;;;16.42;92.24;101648.13;5072919;28;20059;-61
2022/07/22 03:20:06;;;;;;;23.52;8.32;;;;;;;16.37;91.05;101648.66;5072750;28;20044;-61
2022/07/22 03:22:33;;;;;;;21.88;7.93;;;;;;;16.27;91.69;101653.34;5072573;28;20058;-61
2022/07/22 03:25:00;;;;;;;23.30;8.38;;;;;;;16.43;92.01;101647.94;5072798;28;20063;-61
2022/07/22 03:27:27;;;;;;;17.73;7.40;;;;;;;16.42;91.56;101651.63;5074115;28;20041;-60
2022/07/22 03:29:54;;;;;;;24.10;8.15;;;;;;;16.30;91.78;101640.44;5076706;28;20047;-62
2022/07/22 03:32:21;;;;;;;17.45;7.32;;;;;;;16.29;92.08;101644.13;5074720;28;20540;-61
2022/07/22 03:34:48;;;;;;;22.88;8.40;;;;;;;16.20;92.51;101639.78;5076638;28;20127;-63
2022/07/22 03:37:15;;;;;;;16.55;8.20;;;;;;;16.19;92.72;101642.63;5076384;28;20040;-62
2022/07/22 03:39:43;;;;;;;15.38;7.43;;;;;;;16.24;93.06;101641.09;5077054;28;20044;-62
2022/07/22 03:42:11;;;;;;;16.58;7.47;;;;;;;16.29;93.44;101646.78;5076317;28;20079;-62
2022/07/22 03:44:45;;;;;;;20.42;7.35;;;;;;;16.33;93.04;101649.97;5076198;28;20057;-61
2022/07/22 03:47:17;;;;;;;22.23;7.55;;;;;;;16.37;92.68;101637.94;5076061;28;20406;-61
2022/07/22 03:49:45;;;;;;;17.10;7.30;;;;;;;16.36;92.68;101641.59;5073952;28;20040;-61
2022/07/22 03:52:13;;;;;;;15.45;7.05;;;;;;;16.41;91.95;101646.44;5076201;28;20096;-61
2022/07/22 03:54:41;;;;;;;15.45;7.10;;;;;;;16.32;91.70;101645.63;5075321;28;20421;-61
2022/07/22 03:57:08;;;;;;;18.45;8.05;;;;;;;16.33;91.80;101641.13;5075981;28;20048;-61
2022/07/22 03:59:35;;;;;;;17.58;7.07;;;;;;;16.29;92.44;101644.13;5075833;28;20051;-61
2022/07/22 04:02:04;;;;;;;28.60;8.65;;;;;;;16.24;91.82;101646.47;5076198;28;20151;-61
2022/07/22 04:04:31;;;;;;;19.00;8.30;;;;;;;16.31;91.98;101636.75;5075112;28;20055;-61
2022/07/22 04:06:59;;;;;;;23.75;8.32;;;;;;;16.26;91.58;101628.41;5075943;28;20051;-61
2022/07/22 04:09:32;;;;;;;19.88;7.93;;;;;;;16.26;91.83;101633.78;5075905;28;20048;-59
2022/07/22 04:11:59;;;;;;;19.27;7.78;;;;;;;16.30;91.82;101635.09;5075922;28;20060;-63
2022/07/22 04:14:26;;;;;;;20.45;8.13;;;;;;;16.16;91.73;101632.28;5074786;28;20053;-61
2022/07/22 04:16:56;;;;;;;23.63;8.57;;;;;;;16.23;91.67;101630.59;5076044;28;20056;-61
2022/07/22 04:19:23;;;;;;;25.08;8.60;;;;;;;16.23;91.95;101636.78;5075436;28;20481;-61
2022/07/22 04:21:53;;;;;;;21.90;8.23;;;;;;;16.27;91.12;101631.91;5075644;28;20144;-61
2022/07/22 04:24:22;;;;;;;21.85;8.38;;;;;;;16.27;91.05;101634.59;5075629;28;20068;-61
2022/07/22 04:26:49;;;;;;;28.17;9.43;;;;;;;16.38;90.86;101636.91;5075615;28;20060;-61
2022/07/22 04:29:16;;;;;;;25.58;10.55;;;;;;;16.29;91.18;101629.91;5075480;28;20052;-63
2022/07/22 04:31:42;;;;;;;27.67;11.68;;;;;;;16.36;91.68;101625.53;5075024;28;20053;-63
2022/07/22 04:34:13;;;;;;;23.25;10.82;;;;;;;16.44;91.99;101630.88;5075563;28;20106;-63
2022/07/22 04:36:40;;;;;;;29.42;11.05;;;;;;;16.56;92.02;101627.84;5075373;28;20536;-61
2022/07/22 04:39:08;;;;;;;25.67;11.07;;;;;;;16.62;91.43;101630.66;5075044;28;20127;-61
2022/07/22 04:41:37;;;;;;;24.02;9.30;;;;;;;16.58;88.40;101629.34;5074263;28;20040;-61
2022/07/22 04:44:04;;;;;;;23.90;9.48;;;;;;;16.64;88.79;101625.94;5073874;28;20110;-60
2022/07/22 04:46:32;;;;;;;24.55;9.73;;;;;;;16.61;87.19;101630.84;5075516;28;20055;-61
2022/07/22 04:49:00;;;;;;;23.63;9.00;;;;;;;16.56;87.14;101638.56;5075003;28;20044;-60
2022/07/22 04:51:27;;;;;;;20.63;8.07;;;;;;;16.65;86.91;101640.22;5075208;28;20041;-60
2022/07/22 04:54:00;;;;;;;19.35;7.82;;;;;;;16.66;86.16;101637.34;5075043;28;20042;-60
2022/07/22 04:56:27;;;;;;;20.65;8.40;;;;;;;16.72;86.12;101634.97;5075072;28;20052;-60
2022/07/22 04:58:55;;;;;;;31.50;8.40;;;;;;;16.77;85.65;101638.84;5075014;28;20044;-60
2022/07/22 05:01:27;;;;;;;27.00;7.88;;;;;;;16.83;85.59;101640.00;5074782;28;20048;-61
2022/07/22 05:03:54;;;;;;;25.52;10.23;;;;;;;16.69;85.13;101642.34;5074320;28;20048;-61
2022/07/22 05:06:21;;;;;;;23.02;8.77;;;;;;;16.69;85.18;101642.34;5074870;28;20080;-60
2022/07/22 05:08:51;;;;;;;26.08;8.38;;;;;;;16.79;85.60;101642.16;5074291;28;20044;-61
2022/07/22 05:11:18;;;;;;;22.30;9.43;;;;;;;16.87;85.18;101644.84;5074584;28;20044;-61
2022/07/22 05:13:46;;;;;;;25.45;10.25;;;;;;;16.92;85.17;101643.47;5074693;28;20048;-61
2022/07/22 05:16:13;;;;;;;26.98;10.10;;;;;;;17.01;86.21;101645.13;5074781;28;20123;-62
2022/07/22 05:18:40;;;;;;;27.40;11.63;;;;;;;16.96;85.55;101645.63;5074706;28;20136;-61
2022/07/22 05:21:10;;;;;;;25.27;11.82;;;;;;;16.95;85.67;101645.81;5073704;28;20127;-60
2022/07/22 05:23:36;;;;;;;28.92;12.30;;;;;;;17.04;84.87;101639.41;5073038;28;20401;-61
2022/07/22 05:26:05;;;;;;;27.88;12.13;;;;;;;16.82;84.53;101644.47;5074482;28;20127;-61
2022/07/22 05:28:32;;;;;;;25.17;11.40;;;;;;;16.94;85.29;101636.94;5074476;28;20071;-61
2022/07/22 05:31:00;;;;;;;26.95;10.77;;;;;;;16.85;84.83;101641.50;5074442;28;20040;-60
2022/07/22 05:33:27;;;;;;;23.63;9.02;;;;;;;16.94;84.76;101641.47;5073887;28;20044;-60
2022/07/22 05:36:03;;;;;;;20.13;8.50;;;;;;;17.01;84.07;101632.56;5074473;28;20486;-60
2022/07/22 05:38:35;;;;;;;24.40;7.82;;;;;;;17.07;83.01;101634.53;5074391;28;20048;-60
2022/07/22 05:41:02;;;;;;;21.02;8.43;;;;;;;17.14;84.24;101634.66;5074251;28;20654;-62
2022/07/22 05:43:30;;;;;;;18.65;7.53;;;;;;;17.06;84.31;101635.56;5073634;28;20071;-60
2022/07/22 05:45:57;;;;;;;21.98;6.82;;;;;;;17.15;84.43;101628.28;5073821;28;20106;-62
2022/07/22 05:48:23;;;;;;;20.58;6.10;;;;;;;17.10;82.93;101630.69;5074076;28;20052;-62
2022/07/22 05:50:52;;;;;;;18.15;6.20;;;;;;;17.11;82.87;101635.00;5071722;28;20555;-61
2022/07/22 05:53:19;;;;;;;17.67;4.55;;;;;;;17.14;81.85;101633.84;5074022;28;20047;-62
2022/07/22 05:55:45;;;;;;;17.35;4.22;;;;;;;17.06;81.89;101632.00;5074119;28;20044;-61
2022/07/22 05:58:12;;;;;;;19.83;4.28;;;;;;;17.09;80.99;101629.00;5073675;28;20051;-62
2022/07/22 06:00:40;;;;;;;18.20;3.67;;;;;;;17.13;81.14;101624.13;5089168;28;20562;-61
2022/07/22 06:03:06;;;;;;;14.40;3.67;;;;;;;17.19;81.45;101631.44;5073801;28;20053;-62
2022/07/22 06:05:35;;;;;;;17.40;3.60;;;;;;;17.13;81.26;101621.44;5071822;28;20051;-60
2022/07/22 06:08:06;;;;;;;16.05;3.92;;;;;;;17.17;82.05;101622.75;5073578;28;20045;-62
2022/07/22 06:10:42;;;;;;;17.58;3.97;;;;;;;17.12;82.15;101635.84;5073735;28;20048;-61
2022/07/22 06:13:09;;;;;;;12.35;3.50;;;;;;;17.21;81.16;101632.97;5089364;28;20071;-61
2022/07/22 06:15:38;;;;;;;14.80;4.20;;;;;;;17.25;80.50;101639.63;5072550;28;20055;-63
2022/07/22 06:18:05;;;;;;;16.17;4.18;;;;;;;17.36;81.27;101640.25;5073465;28;20049;-61
2022/07/22 06:20:32;;;;;;;12.45;3.90;;;;;;;17.41;81.11;101637.88;5073230;28;20425;-61
2022/07/22 06:22:59;;;;;;;13.85;4.10;;;;;;;17.20;79.71;101641.16;5073637;28;20049;-62
2022/07/22 06:25:26;;;;;;;17.65;4.15;;;;;;;17.22;80.81;101641.81;5073173;28;20070;-62
2022/07/22 06:28:18;;;;;;;19.02;3.92;;;;;;;17.34;80.95;101640.41;5073544;28;20048;-62
2022/07/22 06:30:45;;;;;;;18.95;4.60;;;;;;;17.32;79.77;101633.53;5072301;28;20042;-61
2022/07/22 06:33:12;;;;;;;18.45;4.22;;;;;;;17.23;80.22;101648.88;5073297;28;20052;-60
2022/07/22 06:35:40;;;;;;;18.30;4.05;;;;;;;17.22;79.99;101636.47;5073383;28;20051;-62
2022/07/22 06:38:07;;;;;;;18.42;3.88;;;;;;;17.32;79.60;101633.53;5073525;28;20053;-61
2022/07/22 06:40:54;;;;;;;15.00;3.80;;;;;;;17.33;80.05;101633.38;5072764;28;20135;-61
2022/07/22 06:43:36;;;;;;;13.55;3.92;;;;;;;17.32;79.90;101630.88;5073266;28;20054;-61
2022/07/22 06:46:21;;;;;;;19.83;4.78;;;;;;;17.28;78.71;101638.44;5073275;28;20056;-61
2022/07/22 06:48:51;;;;;;;13.68;4.65;;;;;;;17.21;78.37;101640.16;5072966;28;20044;-61
2022/07/22 06:51:19;;;;;;;14.85;4.75;;;;;;;17.16;77.86;101631.81;5071661;28;20040;-61
2022/07/22 06:53:46;;;;;;;13.07;4.57;;;;;;;17.25;79.06;101638.81;5073034;28;20063;-62
2022/07/22 06:56:13;;;;;;;13.60;4.82;;;;;;;17.23;78.46;101632.78;5073265;28;20056;-62
2022/07/22 06:58:41;;;;;;;15.52;4.63;;;;;;;17.19;nan;101634.97;5073154;28;20048;-61
2022/07/22 07:01:09;;;;;;;13.85;4.60;;;;;;;17.22;78.62;101639.97;5073910;28;20453;-60
2022/07/22 07:03:48;;;;;;;13.63;4.50;;;;;;;17.27;78.30;101634.09;5076873;28;20440;-61
2022/07/22 07:06:15;;;;;;;17.80;4.35;;;;;;;17.29;78.54;101631.25;5077139;28;20049;-61
2022/07/22 07:09:02;;;;;;;24.85;4.85;;;;;;;17.24;76.99;101632.59;5069180;28;20519;-62
2022/07/22 07:11:30;;;;;;;21.10;5.07;;;;;;;17.23;76.81;101638.16;5076424;28;20072;-61
2022/07/22 07:13:57;;;;;;;19.35;4.93;;;;;;;17.21;77.52;101632.13;5076778;28;20048;-60
2022/07/22 07:16:24;;;;;;;19.60;5.20;;;;;;;17.06;78.04;101635.56;5076694;28;20045;-63
2022/07/22 07:18:52;;;;;;;16.42;5.10;;;;;;;17.20;78.24;101638.50;5075598;28;20453;-61
2022/07/22 07:21:20;;;;;;;21.65;5.63;;;;;;;17.22;78.28;101641.81;5076939;28;20086;-61
2022/07/22 07:23:46;;;;;;;20.52;5.30;;;;;;;17.29;77.58;101632.06;5076804;28;20051;-61
2022/07/22 07:26:13;;;;;;;17.52;6.05;;;;;;;17.10;78.01;101622.63;5077053;28;20051;-61
2022/07/22 07:28:40;;;;;;;21.83;6.45;;;;;;;17.18;78.89;101627.94;5076721;28;20490;-61
2022/07/22 07:31:12;;;;;;;18.48;5.68;;;;;;;17.23;78.19;101619.38;5075535;28;20555;-61
2022/07/22 07:33:40;;;;;;;17.20;5.95;;;;;;;17.38;78.40;101620.28;5076716;28;20072;-61
2022/07/22 07:36:07;;;;;;;19.05;6.65;;;;;;;17.46;77.87;101625.59;5075530;28;20094;-61
2022/07/22 07:38:38;;;;;;;22.33;6.50;;;;;;;17.52;77.72;101621.38;5076594;28;20048;-50
2022/07/22 07:41:10;;;;;;;24.23;7.60;;;;;;;17.54;77.57;101627.38;5086010;28;20119;-51
2022/07/22 07:43:38;;;;;;;22.40;7.60;;;;;;;17.49;77.75;101626.25;5076468;28;20130;-52
2022/07/22 07:46:05;;;;;;;25.85;9.80;;;;;;;17.47;77.47;101623.75;5064904;28;20056;-51
2022/07/22 07:48:32;;;;;;;22.30;8.77;;;;;;;17.42;78.21;101620.75;5057215;28;20059;-52
2022/07/22 07:50:59;;;;;;;19.52;9.00;;;;;;;17.40;77.46;101617.41;5071759;28;20048;-50
2022/07/22 07:53:27;;;;;;;23.17;10.00;;;;;;;17.37;77.90;101620.44;5086379;28;20048;-51
2022/07/22 07:55:53;;;;;;;26.33;10.85;;;;;;;17.32;77.66;101622.81;5087142;28;20119;-52
2022/07/22 07:58:21;;;;;;;25.90;11.48;;;;;;;17.23;78.61;101617.53;5095920;28;20126;-53
2022/07/22 08:00:48;;;;;;;27.75;11.43;;;;;;;17.26;79.05;101621.69;5096121;28;20050;-51
2022/07/22 08:03:15;;;;;;;30.85;11.82;;;;;;;17.13;78.85;101616.91;5096042;28;20449;-52
2022/07/22 08:05:42;;;;;;;25.80;10.50;;;;;;;17.19;78.93;101618.91;5095912;28;20597;-53
2022/07/22 08:08:14;;;;;;;25.55;11.68;;;;;;;17.29;78.80;101618.66;5095921;28;20048;-52
2022/07/22 08:10:42;;;;;;;26.10;10.60;;;;;;;17.43;79.84;101611.72;5096036;28;20046;-50
2022/07/22 08:13:46;;;;;;;28.27;9.60;;;;;;;17.51;78.02;101610.81;5094087;28;20048;-50
2022/07/22 08:16:28;;;;;;;38.38;10.63;;;;;;;17.50;78.10;101617.19;5095888;28;20101;-53
2022/07/22 08:18:55;;;;;;;32.33;12.07;;;;;;;17.48;77.72;101619.22;5067278;28;20398;-51
2022/07/22 08:21:22;;;;;;;30.00;11.85;;;;;;;17.56;77.61;101616.47;5066629;28;20037;-51
2022/07/22 08:23:53;;;;;;;27.73;10.60;;;;;;;17.63;77.88;101614.75;5063908;28;20048;-52
2022/07/22 08:26:20;;;;;;;25.52;11.35;;;;;;;17.60;76.96;101617.78;5082595;28;20041;-53
2022/07/22 08:28:47;;;;;;;23.73;10.70;;;;;;;17.64;76.42;101619.94;5068146;28;20052;-57
2022/07/22 08:31:14;;;;;;;25.90;11.65;;;;;;;17.68;76.79;101623.06;5070645;28;20100;-51
2022/07/22 08:33:41;;;;;;;28.75;10.55;;;;;;;17.72;77.31;101626.22;5070501;28;20040;-51
2022/07/22 08:36:08;;;;;;;27.17;9.82;;;;;;;17.36;76.61;101611.56;5074338;28;20040;-51
2022/07/22 08:38:35;;;;;;;29.90;10.85;;;;;;;17.55;76.50;101629.03;5068504;28;20135;-51
2022/07/22 08:41:03;;;;;;;30.92;12.07;;;;;;;17.62;76.13;101624.63;5070913;28;20041;-52
2022/07/22 08:43:35;;;;;;;25.25;11.27;;;;;;;17.50;76.36;101630.59;5081848;28;20063;-51
2022/07/22 08:46:02;;;;;;;30.42;11.32;;;;;;;17.66;77.47;101627.78;5071152;28;20080;-50
2022/07/22 08:48:39;;;;;;;31.75;11.57;;;;;;;17.59;76.82;101632.19;5073417;28;20044;-50
2022/07/22 08:51:27;;;;;;;32.70;11.70;;;;;;;17.64;75.78;101636.03;5067608;28;20105;-50
2022/07/22 08:53:58;;;;;;;27.73;11.30;;;;;;;17.71;76.21;101638.81;5079122;28;20040;-49
2022/07/22 08:56:26;;;;;;;37.47;11.75;;;;;;;17.65;76.91;101635.00;5080594;28;20048;-51
2022/07/22 08:58:53;;;;;;;29.98;11.20;;;;;;;17.69;76.04;101631.97;5074513;28;20044;-48
2022/07/22 09:01:19;;;;;;;32.88;12.07;;;;;;;17.75;75.68;101636.63;5072922;28;20456;-49
2022/07/22 09:03:55;;;;;;;32.72;12.55;;;;;;;17.72;76.93;101632.47;5069503;28;20076;-51
2022/07/22 09:06:33;;;;;;;33.53;11.85;;;;;;;17.71;76.81;101635.31;5072744;28;20033;-55
2022/07/22 09:09:03;;;;;;;33.85;11.70;;;;;;;17.91;76.96;101630.31;5072001;28;20555;-55
2022/07/22 09:12:04;;;;;;;40.17;13.27;;;;;;;17.96;76.00;101631.44;5060700;28;20052;-60
2022/07/22 09:14:53;;;;;;;33.30;11.90;;;;;;;18.10;76.40;101628.97;5042898;28;20494;-57
2022/07/22 09:17:39;;;;;;;34.80;11.80;;;;;;;18.08;75.25;101620.25;5073648;28;20044;-55
2022/07/22 09:20:27;;;;;;;26.27;11.77;;;;;;;18.06;75.97;101625.81;5070570;28;20036;-55
2022/07/22 09:23:17;;;;;;;30.38;12.32;;;;;;;18.09;76.67;101621.94;5073323;28;20516;-55
2022/07/22 09:25:45;;;;;;;35.45;13.35;;;;;;;18.03;73.99;101620.81;5072749;28;20049;-55
2022/07/22 09:28:32;;;;;;;36.63;14.07;;;;;;;18.06;74.72;101631.19;5056832;28;20051;-55
2022/07/22 09:31:25;;;;;;;36.40;13.30;;;;;;;17.94;74.78;101630.78;5064890;28;20047;-55
2022/07/22 09:33:55;;;;;;;41.88;13.00;;;;;;;17.92;74.32;101627.47;5066440;28;20048;-55
2022/07/22 09:36:24;;;;;;;40.40;14.93;;;;;;;18.00;74.99;101637.28;5073648;28;20490;-55
2022/07/22 09:38:53;;;;;;;35.33;14.18;;;;;;;17.92;74.18;101637.34;5057552;28;20498;-55
2022/07/22 09:41:21;;;;;;;40.00;14.07;;;;;;;17.89;74.54;101638.56;5065890;28;20045;-55
2022/07/22 09:43:49;;;;;;;36.65;14.23;;;;;;;18.12;74.62;101633.16;5064839;28;20097;-53
2022/07/22 09:46:16;;;;;;;33.03;12.73;;;;;;;18.26;74.88;101638.72;5058026;28;20174;-54
2022/07/22 09:49:03;;;;;;;32.53;12.93;;;;;;;18.44;74.55;101641.06;5058791;28;20044;-55
2022/07/22 09:51:35;;;;;;;38.75;13.75;;;;;;;18.31;73.65;101634.47;5073069;28;20124;-55
2022/07/22 09:54:16;;;;;;;37.97;14.00;;;;;;;18.40;72.97;101640.59;5058040;28;20371;-55
2022/07/22 09:56:44;;;;;;;40.85;13.77;;;;;;;18.47;72.42;101625.41;5086754;28;20093;-55
2022/07/22 09:59:12;;;;;;;37.15;13.75;;;;;;;18.46;72.05;101618.34;5072919;28;20424;-55
2022/07/22 10:01:43;;;;;;;39.75;16.05;;;;;;;18.55;71.85;101617.25;5072899;28;20109;-55
2022/07/22 10:04:10;;;;;;;38.33;15.07;;;;;;;18.57;71.21;101617.06;5058209;28;20060;-55
2022/07/22 10:06:40;;;;;;;43.25;15.82;;;;;;;18.70;71.66;101609.19;5069508;28;20083;-55
2022/07/22 10:09:14;;;;;;;37.65;14.95;;;;;;;19.03;71.08;101595.38;5059819;28;20052;-55
2022/07/22 10:11:45;;;;;;;41.47;16.10;;;;;;;19.32;69.74;101607.06;5061664;28;20124;-55
2022/07/22 10:14:16;;;;;;;35.10;14.65;;;;;;;19.49;67.61;101603.06;5067988;28;20040;-56
2022/07/22 10:16:48;;;;;;;43.22;15.18;;;;;;;19.74;66.97;101600.03;5055070;28;20094;-55
2022/07/22 10:19:14;;;;;;;39.53;15.77;;;;;;;19.87;65.79;101597.44;5072656;28;20047;-55
2022/07/22 10:21:43;;;;;;;41.92;16.70;;;;;;;19.99;65.58;101600.41;5072824;28;20047;-55
2022/07/22 10:24:14;;;;;;;44.40;16.73;;;;;;;20.18;65.50;101590.00;5063193;28;20045;-56
2022/07/22 10:26:52;;;;;;;40.35;16.77;;;;;;;20.22;65.19;101593.97;5068227;28;20124;-55
2022/07/22 10:29:39;;;;;;;37.13;15.90;;;;;;;20.38;64.50;101576.66;5060294;28;20048;-55
2022/07/22 10:32:22;;;;;;;42.78;16.38;;;;;;;20.55;65.13;101585.25;5065698;28;20517;-55
2022/07/22 10:37:43;;;;;;;39.42;16.13;;;;;;;20.61;63.82;101579.06;5121183;27;20374;-55
2022/07/22 10:40:15;;;;;;;42.90;16.88;;;;;;;20.71;63.62;101569.59;5115730;27;20042;-55
2022/07/22 10:43:03;;;;;;;40.05;16.75;;;;;;;20.75;63.83;101574.59;5127352;28;20043;-55
2022/07/22 10:45:33;;;;;;;39.75;17.00;;;;;;;20.75;65.56;101574.59;5117310;28;20051;-57
2022/07/22 10:48:05;;;;;;;39.88;16.25;;;;;;;20.81;63.37;101574.63;5122937;28;20100;-56
2022/07/22 10:53:17;;;;;;;42.72;18.48;;;;;;;20.27;63.14;101567.28;5172329;27;19941;-55
2022/07/22 10:56:12;;;;;;;37.60;18.08;;;;;;;20.38;62.52;101573.97;5142230;27;20489;-55
2022/07/22 10:58:41;;;;;;;38.83;18.73;;;;;;;20.21;63.60;101576.97;5150350;27;20046;-55
2022/07/22 11:01:10;;;;;;;45.97;19.23;;;;;;;20.04;64.11;101581.81;5151657;27;20500;-55
2022/07/22 11:03:39;;;;;;;46.92;18.95;;;;;;;19.92;64.26;101589.63;5150457;27;20083;-55
2022/07/22 11:06:25;;;;;;;45.33;19.08;;;;;;;19.95;63.74;101588.38;5151655;27;20074;-55
2022/07/22 11:08:54;;;;;;;42.63;19.48;;;;;;;20.04;63.82;101571.03;5134822;27;20077;-55
2022/07/22 11:11:42;;;;;;;44.60;19.50;;;;;;;20.08;64.33;101575.03;5151333;27;20043;-55
2022/07/22 11:14:12;;;;;;;45.97;20.02;;;;;;;19.95;63.59;101574.91;5151356;27;20047;-55
2022/07/22 11:16:40;;;;;;;39.72;19.65;;;;;;;20.03;63.54;101572.09;5151327;27;20509;-55
2022/07/22 11:19:07;;;;;;;43.08;20.77;;;;;;;20.18;62.72;101571.16;5151349;27;20042;-55
2022/07/22 11:21:35;;;;;;;45.38;19.55;;;;;;;20.40;62.42;101558.44;5154133;27;20056;-55
2022/07/22 11:24:06;;;;;;;40.70;19.50;;;;;;;20.53;61.80;101566.56;5151160;27;20130;-55
2022/07/22 11:26:44;;;;;;;44.05;20.08;;;;;;;20.89;62.07;101555.53;5151075;27;20141;-55
2022/07/22 11:29:28;;;;;;;46.90;20.75;;;;;;;21.14;59.63;101549.59;5132576;27;20062;-55
2022/07/22 11:31:57;;;;;;;45.05;21.75;;;;;;;21.15;59.95;101555.81;5150385;27;20372;-55